createdAt,value
2019-03-28T00:03:28.966Z,34.54
2019-03-28T00:08:37.953Z,42.27
2019-03-28T00:13:46.882Z,34.98
2019-03-28T00:18:57.501Z,37.81
2019-03-28T00:24:04.354Z,39.94
2019-03-28T00:29:13.387Z,41.73
2019-03-28T00:34:22.338Z,43.37
2019-03-28T00:39:31.330Z,42.19
2019-03-28T00:44:40.267Z,45.23
2019-03-28T00:49:49.237Z,45.75
2019-03-28T00:54:58.261Z,41.45
2019-03-28T01:00:07.250Z,43.06
2019-03-28T01:05:16.190Z,43.86
2019-03-28T01:10:25.152Z,40.67
2019-03-28T01:15:34.102Z,40.95
2019-03-28T01:20:43.285Z,39.87
2019-03-28T01:25:52.224Z,41.18
2019-03-28T01:31:01.377Z,41.63
2019-03-28T01:36:10.366Z,42.61
2019-03-28T01:41:19.363Z,42.32
2019-03-28T01:46:28.298Z,44.21
2019-03-28T01:51:37.242Z,42.10
2019-03-28T01:56:46.191Z,40.80
2019-03-28T02:01:55.201Z,38.98
2019-03-28T02:07:04.273Z,42.40
2019-03-28T02:12:13.346Z,40.68
2019-03-28T02:17:22.280Z,40.71
2019-03-28T02:22:31.252Z,41.84
2019-03-28T02:27:40.182Z,39.31
2019-03-28T02:32:49.149Z,39.63
2019-03-28T02:37:58.086Z,42.04
2019-03-28T02:43:07.066Z,43.05
2019-03-28T02:48:16.048Z,43.94
2019-03-28T02:53:25.026Z,43.34
2019-03-28T02:58:33.982Z,49.03
2019-03-28T03:03:42.938Z,43.55
2019-03-28T03:08:51.883Z,41.64
2019-03-28T03:14:00.886Z,42.84
2019-03-28T03:19:09.834Z,43.33
2019-03-28T03:24:18.816Z,41.17
2019-03-28T03:29:27.640Z,44.45
2019-03-28T03:34:36.658Z,37.58
2019-03-28T03:39:45.604Z,40.09
2019-03-28T03:44:54.550Z,33.44
2019-03-28T03:50:03.534Z,29.82
2019-03-28T03:55:12.474Z,24.99
2019-03-28T04:00:21.461Z,27.89
2019-03-28T04:05:30.426Z,24.92
2019-03-28T04:10:39.346Z,26.51
2019-03-28T04:15:48.323Z,26.52
2019-03-28T04:20:57.319Z,26.84
2019-03-28T04:26:06.321Z,26.62
2019-03-28T04:31:15.276Z,29.31
2019-03-28T04:36:24.203Z,27.70
2019-03-28T04:41:33.127Z,28.87
2019-03-28T04:46:42.128Z,26.15
2019-03-28T04:51:51.106Z,29.06
2019-03-28T04:57:00.093Z,26.15
2019-03-28T05:02:09.062Z,30.10
2019-03-28T05:07:18.154Z,29.69
2019-03-28T05:12:27.129Z,25.76
2019-03-28T05:17:36.213Z,22.84
2019-03-28T05:22:45.245Z,33.15
2019-03-28T05:27:54.163Z,23.74
2019-03-28T05:33:03.118Z,24.04
2019-03-28T05:38:12.138Z,31.62
2019-03-28T05:43:21.134Z,23.84
2019-03-28T05:48:30.097Z,39.97
2019-03-28T05:53:39.102Z,28.83
2019-03-28T05:58:48.105Z,31.49
2019-03-28T06:03:57.015Z,32.96
2019-03-28T06:09:06.001Z,44.74
2019-03-28T06:14:14.917Z,34.85
2019-03-28T06:19:23.834Z,40.78
2019-03-28T06:24:32.781Z,36.72
2019-03-28T06:29:41.757Z,39.95
2019-03-28T06:34:50.722Z,38.84
2019-03-28T06:39:59.686Z,39.06
2019-03-28T06:45:08.607Z,35.25
2019-03-28T06:50:17.609Z,32.22
2019-03-28T06:55:26.535Z,30.20
2019-03-28T07:00:35.631Z,31.33
2019-03-28T07:05:44.584Z,28.56
2019-03-28T07:10:53.595Z,28.45
2019-03-28T07:16:02.553Z,29.12
2019-03-28T07:21:11.529Z,30.18
2019-03-28T07:26:20.466Z,30.39
2019-03-28T07:31:29.429Z,29.12
2019-03-28T07:36:38.426Z,33.42
2019-03-28T07:41:47.371Z,31.17
2019-03-28T07:46:56.293Z,32.59
2019-03-28T07:52:05.359Z,31.51
2019-03-28T07:57:15.341Z,30.39
2019-03-28T08:02:22.747Z,42.89
2019-03-28T08:07:43.939Z,24.42
2019-03-28T08:12:40.186Z,21.95
2019-03-28T08:17:49.130Z,29.63
2019-03-28T08:22:58.174Z,29.77
2019-03-28T08:28:07.066Z,28.38
2019-03-28T08:33:16.033Z,25.77
2019-03-28T08:38:24.969Z,25.67
2019-03-28T08:43:35.966Z,21.06
2019-03-28T08:48:42.375Z,17.69
2019-03-28T08:53:51.401Z,17.25
2019-03-28T08:59:00.351Z,19.41
2019-03-28T09:04:09.282Z,17.85
2019-03-28T09:09:21.034Z,16.23
2019-03-28T09:14:26.899Z,16.44
2019-03-28T09:19:38.857Z,15.45
2019-03-28T09:24:44.330Z,19.08
2019-03-28T09:29:53.254Z,16.37
2019-03-28T09:35:02.238Z,17.62
2019-03-28T09:40:11.197Z,14.98
2019-03-28T09:45:20.167Z,17.24
2019-03-28T09:50:29.133Z,15.40
2019-03-28T09:55:38.106Z,10.85
2019-03-28T10:01:01.573Z,16.66
2019-03-28T10:05:55.581Z,14.59
2019-03-28T10:11:04.511Z,15.86
2019-03-28T10:16:13.514Z,12.92
2019-03-28T10:21:22.492Z,17.63
2019-03-28T10:26:31.458Z,13.13
2019-03-28T10:31:41.277Z,12.74
2019-03-28T10:36:48.910Z,10.38
2019-03-28T10:41:57.831Z,14.70
2019-03-28T10:47:06.784Z,17.06
2019-03-28T10:52:16.269Z,13.75
2019-03-28T10:57:29.718Z,13.31
2019-03-28T11:02:33.733Z,16.97
2019-03-28T11:07:42.697Z,15.84
2019-03-28T11:12:51.650Z,18.21
2019-03-28T11:18:00.654Z,20.79
2019-03-28T11:23:09.598Z,20.81
2019-03-28T11:28:18.622Z,15.33
2019-03-28T11:33:27.626Z,16.00
2019-03-28T11:38:36.591Z,20.29
2019-03-28T11:43:45.592Z,17.77
2019-03-28T11:48:54.499Z,22.06
2019-03-28T11:54:03.464Z,17.00
2019-03-28T11:59:12.465Z,20.86
2019-03-28T12:04:21.391Z,20.81
2019-03-28T12:09:30.463Z,16.88
2019-03-28T12:14:39.318Z,19.41
2019-03-28T12:19:48.321Z,17.72
2019-03-28T12:24:57.326Z,19.53
2019-03-28T12:30:06.695Z,16.46
2019-03-28T12:35:15.627Z,16.94
2019-03-28T12:40:24.626Z,12.09
2019-03-28T12:45:33.604Z,16.48
2019-03-28T12:50:42.554Z,13.98
2019-03-28T12:55:51.524Z,16.87
2019-03-28T13:01:00.479Z,16.73
2019-03-28T13:06:09.411Z,18.11
2019-03-28T13:11:18.400Z,15.70
2019-03-28T13:16:26.815Z,16.55
2019-03-28T13:21:35.746Z,17.78
2019-03-28T13:26:44.629Z,12.09
2019-03-28T13:31:53.570Z,11.88
2019-03-28T13:37:02.439Z,12.46
2019-03-28T13:42:11.392Z,12.02
2019-03-28T13:47:20.311Z,13.19
2019-03-28T13:52:29.273Z,12.15
2019-03-28T13:57:38.129Z,16.61
2019-03-28T14:02:55.866Z,13.09
2019-03-28T14:07:55.385Z,13.90
2019-03-28T14:13:04.289Z,10.23
2019-03-28T14:18:13.144Z,13.98
2019-03-28T14:23:22.061Z,11.47
2019-03-28T14:28:30.928Z,19.23
2019-03-28T14:33:39.980Z,16.25
2019-03-28T14:38:48.868Z,13.38
2019-03-28T14:43:57.772Z,13.98
2019-03-28T14:49:06.667Z,10.91
2019-03-28T14:54:15.541Z,10.62
2019-03-28T14:59:32.326Z,10.47
2019-03-28T15:04:32.879Z,9.17
2019-03-28T15:09:41.747Z,12.31
2019-03-28T15:14:50.648Z,12.86
2019-03-28T15:19:59.528Z,11.01
2019-03-28T15:25:08.438Z,12.06
2019-03-28T15:30:17.292Z,12.16
2019-03-28T15:35:26.207Z,11.71
2019-03-28T15:40:35.060Z,14.34
2019-03-28T15:45:43.974Z,10.08
2019-03-28T15:50:52.852Z,12.54
2019-03-28T15:56:01.756Z,12.87
2019-03-28T16:01:10.613Z,13.89
2019-03-28T16:06:22.193Z,11.96
2019-03-28T16:11:27.949Z,10.47
2019-03-28T16:16:36.861Z,9.11
2019-03-28T16:21:45.843Z,11.20
2019-03-28T16:26:54.661Z,7.81
2019-03-28T16:32:03.535Z,7.90
2019-03-28T16:37:12.451Z,9.15
2019-03-28T16:42:21.329Z,11.45
2019-03-28T16:47:30.271Z,10.71
2019-03-28T16:52:39.154Z,10.36
2019-03-28T16:57:48.012Z,13.32
2019-03-28T17:02:56.873Z,17.05
2019-03-28T17:08:05.759Z,18.17
2019-03-28T17:13:14.667Z,21.60
2019-03-28T17:18:23.585Z,17.98
2019-03-28T17:23:32.468Z,18.56
2019-03-28T17:28:41.397Z,16.02
2019-03-28T17:33:50.345Z,15.70
2019-03-28T17:38:59.139Z,17.18
2019-03-28T17:44:08.149Z,15.71
2019-03-28T17:49:16.977Z,15.18
2019-03-28T17:54:25.844Z,10.76
2019-03-28T17:59:34.748Z,12.15
2019-03-28T18:04:48.193Z,11.83
2019-03-28T18:09:52.007Z,13.06
2019-03-28T18:15:01.408Z,10.23
2019-03-28T18:20:10.303Z,12.55
2019-03-28T18:25:19.177Z,11.62
2019-03-28T18:30:28.189Z,13.84
2019-03-28T18:35:37.095Z,16.17
2019-03-28T18:40:46.738Z,14.56
2019-03-28T18:45:54.459Z,15.34
2019-03-28T18:51:03.432Z,11.92
2019-03-28T18:56:12.340Z,12.54
2019-03-28T19:01:21.283Z,15.26
2019-03-28T19:06:30.160Z,15.31
2019-03-28T19:11:40.872Z,14.80
2019-03-28T19:16:48.472Z,10.71
2019-03-28T19:21:56.882Z,12.86
2019-03-28T19:27:04.359Z,14.31
2019-03-28T19:32:13.313Z,15.99
2019-03-28T19:37:22.924Z,30.39
2019-03-28T19:42:30.596Z,29.51
2019-03-28T19:47:39.447Z,19.68
2019-03-28T19:52:48.359Z,18.63
2019-03-28T19:57:57.292Z,18.70
2019-03-28T20:03:06.230Z,14.81
2019-03-28T20:08:16.292Z,14.49
2019-03-28T20:13:23.960Z,13.71
2019-03-28T20:18:31.987Z,12.75
2019-03-28T20:23:40.867Z,15.94
2019-03-28T20:28:49.712Z,15.03
2019-03-28T20:33:58.624Z,13.21
2019-03-28T20:39:07.555Z,15.01
2019-03-28T20:44:16.483Z,12.59
2019-03-28T20:49:25.394Z,12.63
2019-03-28T20:54:34.271Z,11.56
2019-03-28T20:59:43.200Z,12.43
2019-03-28T21:04:52.076Z,13.11
2019-03-28T21:10:00.952Z,13.85
2019-03-28T21:15:09.916Z,13.77
2019-03-28T21:20:18.808Z,12.46
2019-03-28T21:25:29.659Z,31.94
2019-03-28T21:30:46.604Z,20.99
2019-03-28T21:35:44.532Z,23.75
2019-03-28T21:40:53.798Z,23.97
2019-03-28T21:46:01.911Z,25.05
2019-03-28T21:51:11.646Z,25.38
2019-03-28T21:56:19.244Z,23.88
2019-03-28T22:01:28.154Z,26.97
2019-03-28T22:06:42.853Z,30.92
2019-03-28T22:11:45.422Z,28.56
2019-03-28T22:16:54.344Z,28.37
2019-03-28T22:22:03.210Z,26.78
2019-03-28T22:27:12.141Z,28.68
2019-03-28T22:32:20.978Z,29.04
2019-03-28T22:37:29.860Z,29.72
2019-03-28T22:42:38.740Z,23.38
2019-03-28T22:47:47.606Z,24.53
2019-03-28T22:52:56.540Z,25.54
2019-03-28T22:58:05.470Z,26.07
2019-03-28T23:03:14.341Z,28.03
2019-03-28T23:08:23.203Z,24.53
2019-03-28T23:13:32.145Z,23.99
2019-03-28T23:18:41.007Z,21.70
2019-03-28T23:23:49.903Z,25.04
2019-03-28T23:28:58.817Z,21.79
2019-03-28T23:34:07.674Z,21.46
2019-03-28T23:39:16.599Z,22.63
2019-03-28T23:44:25.543Z,19.45
2019-03-28T23:49:34.415Z,22.90
2019-03-28T23:54:43.352Z,22.85
2019-03-28T23:59:52.307Z,26.13
